createdAt,value
2023-02-04T00:00:12.273Z,4.06
2023-02-04T00:01:12.266Z,4.16
2023-02-04T00:02:12.274Z,4.31
2023-02-04T00:03:12.247Z,4.55
2023-02-04T00:55:03.969Z,9.44
2023-02-04T00:56:04.941Z,4.22
2023-02-04T00:57:04.932Z,3.62
2023-02-04T00:58:04.917Z,3.92
2023-02-04T00:59:04.909Z,3.85
2023-02-04T01:00:04.912Z,4.22
2023-02-04T01:01:04.955Z,3.94
2023-02-04T01:02:04.884Z,3.96
2023-02-04T01:03:05.004Z,4.24
2023-02-04T01:04:04.865Z,3.92
2023-02-04T01:05:04.866Z,4.09
2023-02-04T01:06:04.853Z,3.59
2023-02-04T01:07:04.918Z,3.68
2023-02-04T01:08:04.837Z,3.88
2023-02-04T01:09:04.830Z,3.61
2023-02-04T01:10:04.818Z,4.14
2023-02-04T01:11:04.834Z,3.79
2023-02-04T01:12:04.798Z,3.34
2023-02-04T01:13:04.792Z,3.86
2023-02-04T01:14:04.811Z,3.81
2023-02-04T01:15:04.776Z,3.85
2023-02-04T01:16:04.777Z,3.47
2023-02-04T01:17:04.762Z,3.23
2023-02-04T01:18:04.743Z,3.29
2023-02-04T01:19:04.743Z,3.97
2023-02-04T01:20:04.738Z,3.55
2023-02-04T01:21:04.737Z,3.88
2023-02-04T01:22:04.717Z,3.94
2023-02-04T01:23:04.706Z,3.22
2023-02-04T01:24:04.700Z,3.76
2023-02-04T01:25:04.683Z,3.58
2023-02-04T01:26:04.678Z,3.77
2023-02-04T01:27:04.696Z,3.25
2023-02-04T01:28:04.733Z,3.28
2023-02-04T01:29:04.657Z,3.54
2023-02-04T01:30:04.658Z,3.48
2023-02-04T01:31:04.651Z,3.32
2023-02-04T01:32:04.731Z,3.23
2023-02-04T01:33:04.617Z,3.38
2023-02-04T01:34:04.607Z,3.44
2023-02-04T01:35:04.600Z,3.75
2023-02-04T01:36:04.593Z,3.46
2023-02-04T01:37:04.597Z,3.58
2023-02-04T01:38:04.583Z,2.92
2023-02-04T01:39:04.562Z,3.63
2023-02-04T01:40:04.556Z,3.29
2023-02-04T01:41:04.553Z,2.89
2023-02-04T01:42:04.548Z,3.65
2023-02-04T01:43:04.561Z,3.26
2023-02-04T01:44:04.532Z,3.20
2023-02-04T01:45:04.515Z,3.42
2023-02-04T01:46:04.560Z,3.43
2023-02-04T01:47:04.500Z,3.29
2023-02-04T01:48:04.489Z,3.24
2023-02-04T01:49:04.491Z,3.32
2023-02-04T01:50:04.478Z,3.19
2023-02-04T01:51:04.467Z,3.18
2023-02-04T01:52:04.451Z,3.01
2023-02-04T01:53:04.445Z,3.37
2023-02-04T01:54:04.432Z,2.91
2023-02-04T01:55:04.424Z,3.53
2023-02-04T01:56:04.418Z,2.82
2023-02-04T01:57:04.408Z,3.27
2023-02-04T01:58:04.406Z,2.99
2023-02-04T01:59:04.416Z,3.17
2023-02-04T02:00:04.387Z,3.19
2023-02-04T02:01:04.409Z,2.81
2023-02-04T02:02:04.408Z,3.03
2023-02-04T02:03:04.353Z,2.77
2023-02-04T02:04:04.345Z,2.77
2023-02-04T02:05:04.343Z,2.42
2023-02-04T02:06:04.337Z,3.08
2023-02-04T02:07:04.317Z,2.91
2023-02-04T02:08:04.310Z,2.56
2023-02-04T02:09:04.298Z,2.75
2023-02-04T02:10:04.309Z,3.38
2023-02-04T02:11:04.299Z,3.07
2023-02-04T02:12:04.361Z,2.77
2023-02-04T02:13:04.270Z,2.97
2023-02-04T02:14:04.259Z,3.10
2023-02-04T02:15:04.301Z,2.66
2023-02-04T02:16:04.243Z,2.56
2023-02-04T02:17:04.227Z,2.79
2023-02-04T02:18:04.217Z,3.09
2023-02-04T02:19:04.215Z,3.06
2023-02-04T02:20:04.200Z,2.73
2023-02-04T02:21:04.192Z,3.08
2023-02-04T02:22:04.181Z,2.68
2023-02-04T02:23:04.171Z,2.96
2023-02-04T02:24:04.166Z,2.88
2023-02-04T02:25:04.155Z,2.80
2023-02-04T02:26:04.152Z,2.94
2023-02-04T02:27:04.162Z,2.85
2023-02-04T02:28:04.207Z,3.03
2023-02-04T02:29:04.115Z,2.94
2023-02-04T02:30:04.112Z,2.99
2023-02-04T02:31:04.237Z,2.81
2023-02-04T02:32:04.096Z,2.45
2023-02-04T02:33:04.088Z,2.60
2023-02-04T02:34:04.079Z,3.02
2023-02-04T02:35:04.070Z,2.90
2023-02-04T02:36:04.054Z,2.90
2023-02-04T02:37:04.088Z,2.83
2023-02-04T02:38:04.044Z,2.78
2023-02-04T02:39:04.030Z,2.55
2023-02-04T02:40:04.028Z,2.52
2023-02-04T02:41:04.013Z,2.57
2023-02-04T02:42:04.018Z,2.46
2023-02-04T02:43:03.995Z,3.15
2023-02-04T02:44:03.989Z,2.82
2023-02-04T02:45:03.974Z,2.74
2023-02-04T02:46:04.049Z,2.35
2023-02-04T02:47:04.005Z,2.93
2023-02-04T02:48:03.942Z,2.74
2023-02-04T02:49:03.954Z,2.67
2023-02-04T02:50:03.932Z,2.46
2023-02-04T02:51:03.917Z,2.53
2023-02-04T02:52:03.908Z,2.07
2023-02-04T02:53:03.895Z,2.79
2023-02-04T02:54:03.890Z,2.52
2023-02-04T02:55:03.882Z,2.40
2023-02-04T02:56:04.664Z,2.50
2023-02-04T02:57:03.865Z,2.58
2023-02-04T02:58:03.857Z,2.91
2023-02-04T02:59:03.843Z,2.96
2023-02-04T03:00:03.836Z,2.42
2023-02-04T03:01:03.862Z,2.67
2023-02-04T03:02:03.819Z,1.97
2023-02-04T03:03:03.828Z,2.82
2023-02-04T03:04:03.801Z,2.23
2023-02-04T03:05:03.788Z,2.85
2023-02-04T03:06:03.782Z,3.02
2023-02-04T03:07:03.769Z,2.54
2023-02-04T03:08:03.771Z,2.66
2023-02-04T03:09:03.765Z,2.57
2023-02-04T03:10:03.755Z,2.58
2023-02-04T03:11:03.737Z,2.56
2023-02-04T03:12:03.774Z,2.40
2023-02-04T03:13:03.725Z,2.59
2023-02-04T03:14:03.729Z,2.62
2023-02-04T03:15:03.698Z,2.52
2023-02-04T03:16:03.749Z,2.20
2023-02-04T03:17:03.679Z,2.38
2023-02-04T03:18:03.684Z,2.41
2023-02-04T03:19:03.692Z,2.59
2023-02-04T03:20:03.657Z,2.66
2023-02-04T03:21:03.642Z,2.42
2023-02-04T03:22:03.637Z,3.11
2023-02-04T03:23:03.625Z,2.74
2023-02-04T03:24:03.620Z,2.25
2023-02-04T03:25:03.618Z,2.79
2023-02-04T03:26:03.602Z,2.26
2023-02-04T03:27:03.602Z,2.26
2023-02-04T03:28:03.644Z,2.32
2023-02-04T03:29:03.571Z,2.09
2023-02-04T03:30:03.568Z,2.45
2023-02-04T03:31:03.643Z,2.57
2023-02-04T03:32:03.627Z,2.30
2023-02-04T03:33:03.550Z,2.42
2023-02-04T03:34:03.525Z,2.29
2023-02-04T03:35:03.545Z,2.55
2023-02-04T03:36:03.523Z,2.71
2023-02-04T03:37:03.508Z,2.57
2023-02-04T03:38:03.503Z,2.48
2023-02-04T03:39:03.489Z,2.41
2023-02-04T03:40:03.485Z,2.27
2023-02-04T03:41:03.472Z,2.38
2023-02-04T03:42:03.461Z,2.62
2023-02-04T03:43:03.449Z,2.40
2023-02-04T03:44:03.441Z,2.25
2023-02-04T03:45:03.443Z,2.35
2023-02-04T03:46:03.460Z,2.59
2023-02-04T03:47:03.419Z,2.69
2023-02-04T03:48:03.405Z,2.34
2023-02-04T03:49:03.394Z,2.27
2023-02-04T03:50:03.388Z,2.21
2023-02-04T03:51:03.408Z,2.52
2023-02-04T03:52:03.368Z,2.18
2023-02-04T03:53:03.363Z,2.28
2023-02-04T03:54:03.355Z,2.58
2023-02-04T03:55:03.357Z,2.17
2023-02-04T03:56:03.332Z,2.56
2023-02-04T03:57:03.330Z,2.76
2023-02-04T03:58:03.316Z,2.05
2023-02-04T03:59:03.307Z,2.39
2023-02-04T04:00:03.308Z,2.61
2023-02-04T04:01:03.288Z,2.24
2023-02-04T04:02:03.288Z,2.42
2023-02-04T04:03:03.318Z,2.15
2023-02-04T04:04:03.260Z,2.36
2023-02-04T04:05:03.257Z,2.46
2023-02-04T04:06:03.247Z,2.10
2023-02-04T04:07:03.261Z,2.31
2023-02-04T04:08:03.230Z,1.91
2023-02-04T04:09:03.217Z,2.69
2023-02-04T04:10:03.216Z,2.05
2023-02-04T04:11:03.198Z,1.85
2023-02-04T04:12:03.188Z,2.23
2023-02-04T04:13:03.180Z,2.13
2023-02-04T04:14:03.176Z,2.27
2023-02-04T04:15:03.168Z,2.59
2023-02-04T04:16:03.184Z,2.72
2023-02-04T04:17:03.150Z,2.20
2023-02-04T04:18:03.135Z,2.63
2023-02-04T04:19:03.132Z,2.47
2023-02-04T04:20:03.124Z,2.20
2023-02-04T04:21:03.117Z,2.30
2023-02-04T04:22:03.124Z,2.18
2023-02-04T04:23:03.139Z,2.21
2023-02-04T04:24:03.102Z,2.47
2023-02-04T04:25:03.073Z,2.25
2023-02-04T04:26:03.066Z,2.00
2023-02-04T04:27:03.061Z,2.04
2023-02-04T04:28:03.134Z,2.01
2023-02-04T04:29:03.041Z,1.91
2023-02-04T04:31:03.114Z,2.19
2023-02-04T04:32:03.148Z,2.28
2023-02-04T04:33:03.002Z,2.26
2023-02-04T04:34:02.990Z,2.35
2023-02-04T04:35:02.979Z,1.87
2023-02-04T04:36:02.978Z,2.21
2023-02-04T04:37:02.975Z,1.81
2023-02-04T04:38:02.957Z,2.05
2023-02-04T04:39:02.969Z,2.02
2023-02-04T04:40:02.955Z,2.27
2023-02-04T04:41:02.924Z,2.54
2023-02-04T04:42:02.919Z,1.75
2023-02-04T04:43:02.909Z,2.45
2023-02-04T04:44:02.897Z,2.30
2023-02-04T04:45:02.891Z,2.37
2023-02-04T04:46:02.887Z,1.96
2023-02-04T04:47:02.871Z,2.36
2023-02-04T04:48:02.893Z,1.77
2023-02-04T04:49:02.849Z,2.48
2023-02-04T04:50:02.844Z,2.26
2023-02-04T04:51:02.839Z,1.93
2023-02-04T04:52:02.831Z,2.29
2023-02-04T04:53:02.816Z,2.10
2023-02-04T04:54:02.810Z,2.09
2023-02-04T04:55:02.820Z,2.17
2023-02-04T04:56:02.792Z,1.94
2023-02-04T04:57:02.785Z,1.97
2023-02-04T04:58:02.779Z,1.61
2023-02-04T04:59:02.763Z,1.99
2023-02-04T05:00:02.772Z,2.15
2023-02-04T05:01:02.882Z,2.36
2023-02-04T05:02:02.736Z,2.34
2023-02-04T05:03:02.730Z,2.26
2023-02-04T05:04:02.732Z,2.36
2023-02-04T05:05:02.764Z,2.48
2023-02-04T05:06:02.711Z,2.09
2023-02-04T05:07:02.703Z,2.19
2023-02-04T05:08:02.693Z,2.57
2023-02-04T05:09:02.682Z,1.70
2023-02-04T05:10:02.675Z,2.23
2023-02-04T05:11:02.684Z,1.98
2023-02-04T05:12:02.664Z,2.02
2023-02-04T05:13:02.647Z,2.29
2023-02-04T05:14:02.647Z,2.08
2023-02-04T05:15:02.630Z,2.07
2023-02-04T05:16:02.705Z,2.20
2023-02-04T05:17:02.620Z,2.00
2023-02-04T05:18:02.607Z,1.91
2023-02-04T05:19:02.598Z,1.84
2023-02-04T05:20:02.586Z,1.83
2023-02-04T05:21:02.581Z,2.30
2023-02-04T05:22:02.571Z,2.36
2023-02-04T05:23:05.134Z,2.29
2023-02-04T05:24:02.551Z,1.94
2023-02-04T05:25:02.542Z,1.77
2023-02-04T05:26:02.537Z,2.22
2023-02-04T05:27:02.557Z,2.20
2023-02-04T05:28:02.589Z,1.87
2023-02-04T05:29:02.505Z,1.78
2023-02-04T05:30:02.501Z,2.00
2023-02-04T05:31:02.536Z,1.81
2023-02-04T05:32:02.532Z,1.90
2023-02-04T05:33:02.481Z,1.94
2023-02-04T05:34:02.469Z,2.30
2023-02-04T05:35:03.318Z,2.12
2023-02-04T05:36:02.609Z,2.11
2023-02-04T05:37:02.615Z,1.82
2023-02-04T05:38:02.590Z,1.73
2023-02-04T05:39:02.585Z,2.15
2023-02-04T05:40:02.578Z,1.98
2023-02-04T05:41:02.562Z,1.90
2023-02-04T05:42:02.566Z,2.22
2023-02-04T05:43:02.568Z,1.70
2023-02-04T05:44:02.541Z,2.28
2023-02-04T05:45:02.530Z,1.90
2023-02-04T05:46:02.583Z,1.91
2023-02-04T05:47:02.515Z,2.06
2023-02-04T05:48:02.503Z,1.88
2023-02-04T05:49:02.495Z,2.22
2023-02-04T05:50:02.485Z,2.06
2023-02-04T05:51:02.476Z,2.11
2023-02-04T05:52:02.467Z,2.17
2023-02-04T05:53:02.461Z,1.60
2023-02-04T05:54:02.453Z,1.92
2023-02-04T05:55:02.440Z,2.43
2023-02-04T05:56:02.442Z,1.80
2023-02-04T05:57:02.433Z,1.79
2023-02-04T05:58:02.418Z,2.35
2023-02-04T05:59:02.437Z,1.96
2023-02-04T06:00:02.401Z,2.27
2023-02-04T06:01:02.389Z,1.81
2023-02-04T06:02:02.396Z,2.03
2023-02-04T06:03:02.370Z,1.90
2023-02-04T06:04:02.419Z,1.67
2023-02-04T06:05:02.354Z,1.69
2023-02-04T06:06:02.361Z,1.88
2023-02-04T06:07:02.338Z,2.04
2023-02-04T06:08:02.334Z,2.02
2023-02-04T06:09:02.332Z,1.95
2023-02-04T06:10:02.320Z,1.76
2023-02-04T06:11:02.303Z,1.87
2023-02-04T06:12:02.307Z,1.81
2023-02-04T06:13:02.280Z,1.99
2023-02-04T06:14:02.274Z,1.93
2023-02-04T06:15:02.286Z,1.90
2023-02-04T06:16:02.252Z,1.84
2023-02-04T06:17:02.243Z,2.02
2023-02-04T06:18:02.236Z,1.92
2023-02-04T06:19:02.234Z,1.73
2023-02-04T06:20:02.232Z,1.73
2023-02-04T06:21:02.202Z,1.67
2023-02-04T06:22:02.195Z,1.69
2023-02-04T06:23:02.193Z,1.88
2023-02-04T06:24:02.707Z,1.95
2023-02-04T06:25:02.173Z,1.53
2023-02-04T06:26:02.159Z,1.77
2023-02-04T06:27:02.151Z,1.68
2023-02-04T06:28:02.170Z,1.87
2023-02-04T06:29:02.128Z,1.68
2023-02-04T06:30:02.121Z,1.97
2023-02-04T06:31:02.223Z,2.00
2023-02-04T06:32:02.248Z,1.99
2023-02-04T06:33:02.101Z,2.16
2023-02-04T06:34:02.146Z,1.68
2023-02-04T06:35:02.076Z,1.95
2023-02-04T06:36:02.068Z,2.00
2023-02-04T06:37:02.071Z,1.78
2023-02-04T06:38:02.048Z,1.84
2023-02-04T06:39:02.066Z,1.79
2023-02-04T06:40:02.086Z,1.69
2023-02-04T06:41:02.024Z,1.94
2023-02-04T06:42:02.016Z,1.88
2023-02-04T06:43:03.840Z,1.76
2023-02-04T06:44:01.996Z,1.87
2023-02-04T06:45:01.989Z,1.35
2023-02-04T06:46:01.994Z,2.12
2023-02-04T06:47:01.994Z,1.82
2023-02-04T06:48:01.967Z,1.98
2023-02-04T06:49:01.947Z,1.74
2023-02-04T06:50:01.946Z,1.84
2023-02-04T06:51:01.930Z,1.64
2023-02-04T06:52:01.921Z,1.74
2023-02-04T06:53:01.916Z,1.81
2023-02-04T06:54:01.905Z,1.82
2023-02-04T06:55:01.907Z,1.99
2023-02-04T06:56:01.896Z,1.68
2023-02-04T06:57:01.874Z,1.54
2023-02-04T06:58:01.864Z,1.90
2023-02-04T06:59:03.375Z,1.83
2023-02-04T07:00:01.992Z,1.77
2023-02-04T07:01:02.031Z,1.88
2023-02-04T07:02:01.976Z,1.77
2023-02-04T07:03:01.983Z,1.67
2023-02-04T07:04:01.945Z,1.72
2023-02-04T07:05:01.935Z,1.77
2023-02-04T07:06:01.921Z,2.06
2023-02-04T07:07:01.916Z,1.48
2023-02-04T07:08:01.916Z,1.62
2023-02-04T07:09:01.898Z,1.72
2023-02-04T07:10:01.935Z,2.10
2023-02-04T07:11:01.882Z,1.56
2023-02-04T07:12:01.875Z,1.68
2023-02-04T07:13:01.865Z,1.83
2023-02-04T07:14:01.866Z,1.84
2023-02-04T07:15:01.876Z,1.53
2023-02-04T07:16:01.898Z,1.81
2023-02-04T07:17:01.830Z,2.40
2023-02-04T07:18:01.812Z,1.91
2023-02-04T07:19:01.833Z,1.95
2023-02-04T07:20:01.807Z,1.48
2023-02-04T07:21:01.789Z,1.89
2023-02-04T07:22:01.782Z,2.10
2023-02-04T07:23:01.778Z,1.75
2023-02-04T07:24:01.760Z,1.64
2023-02-04T10:01:00.477Z,1.62
2023-02-04T10:26:00.121Z,1.56
2023-02-04T10:47:59.892Z,1.37
2023-02-04T11:45:59.392Z,1.77
2023-02-04T11:58:59.242Z,1.54
2023-02-04T11:59:59.227Z,1.39
2023-02-04T12:00:59.241Z,1.54
2023-02-04T12:02:59.314Z,1.30
2023-02-04T12:03:59.223Z,1.31
2023-02-04T12:04:59.181Z,1.09
2023-02-04T12:05:59.195Z,1.23
2023-02-04T12:06:59.193Z,1.61
2023-02-04T12:07:59.154Z,1.28
2023-02-04T12:08:59.154Z,1.45
2023-02-04T12:09:59.142Z,1.45
2023-02-04T12:10:59.141Z,1.16
2023-02-04T12:12:59.106Z,1.26
2023-02-04T12:13:59.113Z,1.42
2023-02-04T12:14:59.097Z,1.34
2023-02-04T12:15:59.174Z,1.69
2023-02-04T12:16:59.081Z,1.28
2023-02-04T12:18:59.064Z,1.34
2023-02-04T12:19:59.041Z,1.40
2023-02-04T12:20:59.032Z,1.13
2023-02-04T12:21:59.024Z,1.68
2023-02-04T12:22:59.045Z,1.31
2023-02-04T12:23:59.006Z,1.59
2023-02-04T12:24:59.001Z,1.32
2023-02-04T12:25:58.990Z,1.50
2023-02-04T12:26:58.970Z,1.40
2023-02-04T12:27:59.020Z,1.66
2023-02-04T12:28:58.953Z,1.52
2023-02-04T12:29:58.944Z,1.23
2023-02-04T12:30:59.062Z,1.53
2023-02-04T12:31:59.006Z,1.68
2023-02-04T12:32:58.925Z,1.32
2023-02-04T12:33:58.912Z,1.35
2023-02-04T12:34:58.893Z,1.38
2023-02-04T12:35:58.882Z,1.06
2023-02-04T12:36:58.892Z,1.25
2023-02-04T12:37:58.871Z,1.44
2023-02-04T12:38:58.878Z,1.67
2023-02-04T12:39:58.852Z,1.45
2023-02-04T12:40:58.854Z,1.21
2023-02-04T12:41:58.830Z,1.54
2023-02-04T12:42:58.818Z,1.43
2023-02-04T12:43:58.810Z,1.57
2023-02-04T12:44:58.801Z,1.37
2023-02-04T12:45:58.802Z,1.62
2023-02-04T12:46:58.860Z,1.28
2023-02-04T12:47:58.802Z,1.62
2023-02-04T12:48:58.761Z,1.35
2023-02-04T12:49:58.751Z,1.63
2023-02-04T12:50:58.745Z,1.72
2023-02-04T12:51:58.742Z,1.46
2023-02-04T12:52:58.740Z,1.48
2023-02-04T12:53:58.719Z,1.47
2023-02-04T12:54:58.734Z,1.28
2023-02-04T12:55:58.716Z,1.56
2023-02-04T12:56:58.690Z,1.37
2023-02-04T12:57:58.678Z,1.08
2023-02-04T12:58:58.707Z,1.24
2023-02-04T12:59:58.679Z,1.40
2023-02-04T13:00:58.740Z,1.32
2023-02-04T13:01:58.713Z,1.03
2023-02-04T13:02:58.630Z,1.48
2023-02-04T13:03:58.620Z,1.15
2023-02-04T13:04:58.625Z,1.40
2023-02-04T13:05:58.605Z,1.30
2023-02-04T13:06:58.592Z,1.18
2023-02-04T13:07:58.589Z,1.18
2023-02-04T13:08:58.596Z,1.42
2023-02-04T13:09:58.583Z,1.20
2023-02-04T13:10:58.581Z,1.48
2023-02-04T13:11:58.544Z,1.50
2023-02-04T13:12:58.534Z,1.43
2023-02-04T13:13:58.533Z,1.32
2023-02-04T13:14:58.524Z,1.60
2023-02-04T13:15:58.553Z,1.41
2023-02-04T13:16:58.499Z,1.28
2023-02-04T13:17:58.486Z,1.18
2023-02-04T13:18:58.483Z,1.34
2023-02-04T13:19:58.467Z,1.38
2023-02-04T13:20:58.459Z,1.29
2023-02-04T13:21:58.451Z,1.29
2023-02-04T13:22:58.449Z,1.38
2023-02-04T13:23:58.435Z,1.35
2023-02-04T13:24:58.425Z,1.25
2023-02-04T13:25:58.412Z,1.20
2023-02-04T13:26:58.441Z,1.52
2023-02-04T13:27:58.426Z,1.28
2023-02-04T13:28:58.383Z,1.55
2023-02-04T13:29:58.374Z,1.52
2023-02-04T13:30:58.401Z,1.40
2023-02-04T13:31:58.374Z,1.39
2023-02-04T13:32:58.344Z,0.98
2023-02-04T13:33:58.340Z,1.27
2023-02-04T13:34:58.332Z,1.46
2023-02-04T13:35:58.321Z,1.30
2023-02-04T13:36:58.332Z,1.30
2023-02-04T13:37:58.309Z,1.27
2023-02-04T13:38:58.291Z,1.16
2023-02-04T13:39:58.283Z,1.29
2023-02-04T13:40:58.280Z,1.37
2023-02-04T13:41:58.278Z,1.35
2023-02-04T13:42:58.285Z,1.48
2023-02-04T13:43:58.249Z,1.52
2023-02-04T13:44:58.250Z,1.16
2023-02-04T13:45:58.326Z,1.31
2023-02-04T13:46:58.220Z,1.33
2023-02-04T13:47:58.210Z,1.38
2023-02-04T13:48:58.211Z,1.37
2023-02-04T13:49:58.197Z,1.22
2023-02-04T13:50:58.193Z,1.33
2023-02-04T13:51:58.185Z,1.21
2023-02-04T13:52:58.170Z,1.27
2023-02-04T13:53:58.159Z,1.70
2023-02-04T13:54:58.156Z,1.63
2023-02-04T13:55:58.146Z,1.20
2023-02-04T13:56:58.137Z,1.28
2023-02-04T13:57:58.121Z,1.16
2023-02-04T13:58:58.242Z,1.22
2023-02-04T13:59:58.112Z,1.42
2023-02-04T14:00:58.160Z,1.23
2023-02-04T14:01:58.105Z,1.34
2023-02-04T14:02:58.080Z,1.21
2023-02-04T14:03:58.065Z,1.43
2023-02-04T14:04:58.067Z,1.10
2023-02-04T14:05:58.050Z,1.02
2023-02-04T14:07:58.028Z,1.16
2023-02-04T14:08:58.025Z,1.31
2023-02-04T14:09:58.020Z,1.24
2023-02-04T14:10:58.000Z,1.59
2023-02-04T14:11:57.990Z,1.33
2023-02-04T14:12:57.990Z,1.31
2023-02-04T14:13:57.979Z,1.22
2023-02-04T14:14:57.984Z,1.06
2023-02-04T14:15:57.957Z,1.14
2023-02-04T14:16:57.994Z,1.04
2023-02-04T14:17:57.934Z,1.36
2023-02-04T14:18:57.928Z,1.27
2023-02-04T14:19:57.911Z,1.31
2023-02-04T14:20:57.930Z,1.52
2023-02-04T14:21:57.894Z,1.39
2023-02-04T14:22:57.885Z,1.55
2023-02-04T14:23:57.875Z,1.45
2023-02-04T14:24:57.861Z,1.46
2023-02-04T14:25:57.856Z,1.31
2023-02-04T14:26:57.844Z,1.05
2023-02-04T14:28:00.105Z,1.28
2023-02-04T14:28:57.839Z,1.28
2023-02-04T14:29:57.813Z,1.25
2023-02-04T14:30:57.880Z,1.52
2023-02-04T14:31:57.843Z,1.61
2023-02-04T14:32:57.787Z,1.35
2023-02-04T14:33:57.784Z,1.48
2023-02-04T14:34:57.767Z,1.31
2023-02-04T14:35:57.762Z,1.76
2023-02-04T14:36:57.757Z,1.35
2023-02-04T14:37:57.738Z,1.40
2023-02-04T14:38:57.736Z,1.27
2023-02-04T14:39:57.728Z,1.61
2023-02-04T14:40:57.714Z,1.33
2023-02-04T14:41:57.717Z,1.36
2023-02-04T14:42:57.698Z,1.14
2023-02-04T14:43:57.696Z,1.27
2023-02-04T14:44:57.678Z,1.52
2023-02-04T14:45:57.704Z,1.25
2023-02-04T14:46:57.676Z,1.33
2023-02-04T14:47:57.647Z,1.37
2023-02-04T14:48:57.636Z,1.59
2023-02-04T14:49:57.631Z,1.28
2023-02-04T14:50:57.632Z,1.44
2023-02-04T14:51:57.620Z,1.59
2023-02-04T14:52:57.599Z,1.47
2023-02-04T14:53:57.599Z,1.52
2023-02-04T14:54:57.587Z,1.39
2023-02-04T14:55:57.575Z,1.54
2023-02-04T14:56:57.574Z,1.43
2023-02-04T14:57:57.555Z,1.46
2023-02-04T14:58:57.559Z,1.16
2023-02-04T14:59:57.542Z,1.29
2023-02-04T15:00:57.547Z,1.21
2023-02-04T15:01:57.594Z,1.22
2023-02-04T15:02:57.531Z,1.18
2023-02-04T15:03:57.498Z,0.97
2023-02-04T15:04:57.487Z,1.09
2023-02-04T15:05:57.493Z,1.53
2023-02-04T15:06:57.467Z,1.28
2023-02-04T15:07:57.460Z,1.15
2023-02-04T15:08:57.460Z,1.34
2023-02-04T15:09:57.494Z,1.20
2023-02-04T15:10:57.463Z,1.47
2023-02-04T15:11:57.428Z,1.16
2023-02-04T15:12:57.410Z,1.54
2023-02-04T15:13:57.405Z,1.10
2023-02-04T15:14:57.391Z,0.88
2023-02-04T15:15:57.389Z,1.69
2023-02-04T15:16:57.497Z,1.05
2023-02-04T15:17:57.373Z,1.60
2023-02-04T15:18:57.379Z,1.21
2023-02-04T15:19:57.344Z,1.38
2023-02-04T15:20:57.337Z,1.24
2023-02-04T15:21:57.333Z,1.14
2023-02-04T15:22:59.710Z,1.23
2023-02-04T15:23:57.305Z,1.03
2023-02-04T15:24:57.298Z,1.43
2023-02-04T15:25:57.291Z,1.60
2023-02-04T15:26:57.275Z,1.27
2023-02-04T15:27:57.357Z,1.15
2023-02-04T15:28:57.262Z,1.14
2023-02-04T15:29:57.245Z,1.30
2023-02-04T15:30:57.362Z,1.12
2023-02-04T15:31:57.284Z,1.15
2023-02-04T15:32:57.225Z,1.60
2023-02-04T15:33:57.211Z,1.43
2023-02-04T15:34:57.220Z,1.25
2023-02-04T15:35:57.184Z,1.48
2023-02-04T15:36:57.181Z,1.22
2023-02-04T15:37:57.168Z,1.04
2023-02-04T15:38:57.157Z,1.68
2023-02-04T15:39:57.174Z,0.99
2023-02-04T15:40:57.144Z,1.24
2023-02-04T15:41:57.136Z,1.13
2023-02-04T15:42:57.127Z,1.18
2023-02-04T15:43:57.111Z,1.55
2023-02-04T15:44:57.114Z,1.21
2023-02-04T15:45:57.143Z,1.13
2023-02-04T15:46:57.090Z,1.02
2023-02-04T15:47:57.073Z,1.02
2023-02-04T15:48:57.067Z,1.04
2023-02-04T15:49:57.063Z,1.36
2023-02-04T15:50:57.079Z,1.36
2023-02-04T15:51:57.043Z,1.12
2023-02-04T15:53:57.028Z,1.26
2023-02-04T15:54:57.021Z,0.93
2023-02-04T15:55:57.007Z,1.10
2023-02-04T15:56:57.018Z,1.43
2023-02-04T15:57:56.986Z,1.32
2023-02-04T15:58:56.995Z,1.12
2023-02-04T15:59:56.973Z,1.03
2023-02-04T16:00:56.963Z,1.20
2023-02-04T16:01:56.961Z,1.17
2023-02-04T16:02:57.027Z,0.90
2023-02-04T16:03:56.929Z,1.04
2023-02-04T16:04:56.928Z,1.38
2023-02-04T16:05:56.924Z,1.00
2023-02-04T16:06:58.939Z,1.10
2023-02-04T16:07:56.898Z,1.56
2023-02-04T16:08:56.896Z,1.33
2023-02-04T16:09:56.880Z,1.35
2023-02-04T16:10:57.077Z,1.13
2023-02-04T16:11:56.859Z,0.88
2023-02-04T16:12:56.856Z,1.57
2023-02-04T16:13:56.852Z,1.39
2023-02-04T16:14:56.839Z,1.20
2023-02-04T16:15:56.900Z,1.37
2023-02-04T16:16:56.816Z,1.10
2023-02-04T16:17:56.808Z,1.19
2023-02-04T16:18:56.802Z,1.02
2023-02-04T16:19:56.791Z,1.52
2023-02-04T16:20:56.778Z,1.09
2023-02-04T16:21:56.768Z,1.13
2023-02-04T16:22:56.795Z,0.87
2023-02-04T16:23:56.751Z,1.23
2023-02-04T16:24:56.740Z,1.37
2023-02-04T16:25:56.732Z,1.12
2023-02-04T16:26:56.721Z,1.27
2023-02-04T16:27:56.766Z,1.03
2023-02-04T16:28:56.709Z,1.03
2023-02-04T16:29:56.950Z,1.03
2023-02-04T16:30:56.858Z,1.21
2023-02-04T16:31:56.758Z,1.51
2023-02-04T16:32:56.663Z,1.06
2023-02-04T16:33:56.652Z,1.18
2023-02-04T16:34:56.784Z,1.50
2023-02-04T16:35:56.631Z,0.98
2023-02-04T16:36:56.633Z,2.36
2023-02-04T16:37:56.615Z,1.47
2023-02-04T16:38:56.624Z,1.34
2023-02-04T16:39:56.593Z,1.31
2023-02-04T16:40:56.595Z,1.14
2023-02-04T16:41:56.582Z,1.21
2023-02-04T16:42:56.564Z,1.02
2023-02-04T16:43:56.553Z,1.22
2023-02-04T16:44:56.544Z,1.00
2023-02-04T16:45:56.558Z,1.21
2023-02-04T16:46:56.543Z,1.46
2023-02-04T16:47:56.522Z,1.48
2023-02-04T16:48:56.510Z,1.27
2023-02-04T16:49:56.508Z,1.26
2023-02-04T16:50:56.998Z,1.12
2023-02-04T16:51:56.481Z,1.07
2023-02-04T16:52:56.478Z,1.29
2023-02-04T16:53:56.458Z,1.15
2023-02-04T16:54:56.484Z,1.04
2023-02-04T16:55:56.445Z,1.18
2023-02-04T16:56:56.430Z,1.07
2023-02-04T16:57:56.421Z,0.93
2023-02-04T16:58:56.413Z,1.36
2023-02-04T16:59:56.416Z,1.27
2023-02-04T17:00:56.430Z,1.39
2023-02-04T17:01:56.408Z,0.92
2023-02-04T17:02:56.390Z,1.39
2023-02-04T17:03:56.363Z,1.09
2023-02-04T17:04:56.357Z,1.41
2023-02-04T17:05:56.346Z,1.45
2023-02-04T17:06:56.336Z,1.19
2023-02-04T17:07:56.333Z,1.26
2023-02-04T17:08:56.329Z,1.25
2023-02-04T17:09:56.315Z,1.39
2023-02-04T17:10:56.323Z,1.22
2023-02-04T17:11:56.293Z,1.06
2023-02-04T17:12:56.283Z,1.31
2023-02-04T17:13:56.277Z,1.45
2023-02-04T17:14:56.265Z,1.16
2023-02-04T17:15:56.298Z,1.20
2023-02-04T17:16:56.247Z,1.37
2023-02-04T17:17:56.270Z,1.10
2023-02-04T17:18:56.227Z,1.34
2023-02-04T17:19:56.219Z,1.64
2023-02-04T17:20:56.209Z,1.06
2023-02-04T17:21:56.204Z,1.54
2023-02-04T17:22:56.197Z,1.29
2023-02-04T17:23:56.189Z,1.19
2023-02-04T17:24:56.178Z,1.09
2023-02-04T17:25:56.174Z,1.16
2023-02-04T17:26:56.278Z,1.42
2023-02-04T17:27:56.228Z,1.18
2023-02-04T17:28:56.140Z,1.14
2023-02-04T17:29:56.143Z,1.28
2023-02-04T17:30:56.192Z,1.27
2023-02-04T17:31:56.200Z,1.05
2023-02-04T17:32:56.101Z,1.13
2023-02-04T17:33:56.102Z,1.13
2023-02-04T17:34:56.075Z,1.23
2023-02-04T17:35:56.067Z,1.08
2023-02-04T17:36:56.066Z,1.32
2023-02-04T17:37:56.053Z,1.42
2023-02-04T17:38:56.047Z,1.15
2023-02-04T17:39:56.032Z,1.00
2023-02-04T17:40:56.027Z,1.34
2023-02-04T17:41:56.016Z,1.23
2023-02-04T17:42:56.031Z,1.03
2023-02-04T17:43:55.998Z,1.16
2023-02-04T17:44:56.021Z,1.27
2023-02-04T17:45:56.074Z,1.20
2023-02-04T17:46:56.005Z,1.48
2023-02-04T17:47:55.958Z,1.20
2023-02-04T17:48:55.989Z,1.14
2023-02-04T17:49:55.945Z,1.33
2023-02-04T17:50:55.939Z,1.03
2023-02-04T17:51:55.926Z,1.36
2023-02-04T17:52:55.915Z,1.42
2023-02-04T17:53:55.925Z,1.39
2023-02-04T17:54:55.899Z,1.04
2023-02-04T17:55:55.886Z,1.32
2023-02-04T17:56:55.877Z,1.18
2023-02-04T17:57:55.873Z,1.63
2023-02-04T17:58:55.886Z,1.19
2023-02-04T17:59:55.862Z,1.49
2023-02-04T18:00:55.875Z,1.10
2023-02-04T18:01:56.007Z,1.46
2023-02-04T18:02:55.817Z,1.13
2023-02-04T18:03:55.809Z,1.10
2023-02-04T18:04:55.806Z,1.20
2023-02-04T18:05:55.794Z,1.30
2023-02-04T18:06:55.787Z,1.06
2023-02-04T18:07:55.781Z,1.42
2023-02-04T18:08:55.768Z,1.26
2023-02-04T18:09:55.751Z,0.97
2023-02-04T18:10:55.766Z,1.03
2023-02-04T18:11:55.735Z,1.34
2023-02-04T18:12:55.725Z,1.20
2023-02-04T18:13:55.725Z,1.14
2023-02-04T18:14:55.733Z,1.58
2023-02-04T18:15:55.694Z,1.31
2023-02-04T18:16:55.689Z,1.08
2023-02-04T18:17:55.680Z,1.15
2023-02-04T18:18:55.669Z,1.33
2023-02-04T18:19:55.659Z,1.15
2023-02-04T18:20:55.649Z,1.59
2023-02-04T18:21:55.647Z,1.34
2023-02-04T18:22:55.636Z,1.21
2023-02-04T18:23:55.627Z,1.43
2023-02-04T18:24:55.613Z,1.15
2023-02-04T18:25:55.604Z,1.26
2023-02-04T18:26:56.445Z,1.21
2023-02-04T18:27:55.636Z,1.40
2023-02-04T18:28:55.582Z,1.21
2023-02-04T18:29:55.691Z,1.21
2023-02-04T18:30:55.632Z,1.42
2023-02-04T18:31:55.623Z,1.28
2023-02-04T18:32:55.532Z,1.43
2023-02-04T18:33:55.525Z,1.04
2023-02-04T18:34:55.513Z,1.21
2023-02-04T18:35:55.509Z,1.24
2023-02-04T18:36:55.501Z,1.24
2023-02-04T18:37:55.483Z,1.12
2023-02-04T18:38:55.475Z,1.23
2023-02-04T18:39:55.466Z,1.40
2023-02-04T18:40:55.463Z,1.32
2023-02-04T18:41:55.451Z,1.12
2023-02-04T18:42:55.440Z,1.36
2023-02-04T18:43:55.447Z,1.39
2023-02-04T18:44:55.418Z,1.31